Terminal Aerodrome Forecast
Issued by NWS

Home | Current Version | Previous Version | Text Only | Print | Product List | Glossary On
Versions: 1 2 3 4 5 6 7 8 9 10 11 12 13 14 15 16 17 18 19 20
000
FTUS41 KPHI 270520
TAFMIV
TAF
KMIV 270520Z 2706/2806 00000KT P6SM BKN200
     FM270800 00000KT P6SM VCSH BKN120
     FM271000 VRB02KT P6SM OVC070
      TEMPO 2710/2712 5SM -RA
     FM271200 08004KT 6SM -RA OVC035
     FM271400 13005KT 6SM -RA OVC020
     FM271600 20007KT 6SM -SHRA OVC010=

USA.gov is the U.S. government's official web portal to all federal, state and local government web resources and services.